Time;durP1;ratioP1;P1;durP2;ratioP2;P2;SDS_P1;SDS_P2;PMS_P1;PMS_P2;Temp;Humidity;BMP_temperature;BMP_pressure;BME280_temperature;BME280_humidity;BME280_pressure;Samples;Min_cycle;Max_cycle;Signal;HPM_P1;HPM_P2
2023/03/06 09:35:34;;;;;;;4.70;1.63;;;17.80;74.50;;;;;;5067968;27;1690106;-35
2023/03/06 09:38:01;;;;;;;4.78;1.70;;;17.80;75.70;;;;;;5093649;28;20040;-36
2023/03/06 09:40:27;;;;;;;4.55;1.90;;;17.90;75.80;;;;;;5112179;28;20052;-36
2023/03/06 09:42:54;;;;;;;4.85;1.73;;;18.10;75.40;;;;;;5110596;28;20457;-36
2023/03/06 09:45:21;;;;;;;5.03;2.00;;;18.30;75.20;;;;;;5104763;28;20036;-36
2023/03/06 09:47:48;;;;;;;4.03;1.77;;;18.40;74.90;;;;;;5110797;28;20415;-37
2023/03/06 09:50:15;;;;;;;6.47;2.00;;;18.60;74.80;;;;;;5110965;28;20048;-36
2023/03/06 09:52:42;;;;;;;8.25;1.80;;;18.80;74.70;;;;;;5111957;28;20050;-36
2023/03/06 09:55:09;;;;;;;5.75;1.80;;;18.90;74.70;;;;;;5110575;28;20337;-37
2023/03/06 09:57:35;;;;;;;5.50;1.80;;;19.10;74.50;;;;;;5110746;28;20055;-35
2023/03/06 10:00:03;;;;;;;7.53;2.13;;;19.20;74.30;;;;;;5111064;28;20055;-46
2023/03/06 10:02:30;;;;;;;5.10;1.88;;;19.20;73.80;;;;;;5110349;28;20119;-41
2023/03/06 10:04:59;;;;;;;5.63;2.05;;;19.40;73.00;;;;;;5086454;28;20043;-46
2023/03/06 10:07:26;;;;;;;4.78;2.03;;;19.50;72.50;;;;;;5090111;28;20043;-42
2023/03/06 10:09:53;;;;;;;6.93;1.90;;;19.50;72.00;;;;;;5091342;28;20101;-43
2023/03/06 10:12:19;;;;;;;7.18;2.08;;;19.60;71.80;;;;;;5090808;28;20037;-45
2023/03/06 10:14:51;;;;;;;6.13;1.70;;;19.60;71.80;;;;;;5090032;28;20041;-42
2023/03/06 10:17:18;;;;;;;8.50;2.25;;;19.70;71.60;;;;;;5090827;28;20066;-41
2023/03/06 10:19:46;;;;;;;5.10;1.77;;;19.70;71.40;;;;;;5090896;28;20045;-46
2023/03/06 10:22:13;;;;;;;6.03;1.83;;;19.80;71.30;;;;;;5105289;28;20115;-44
2023/03/06 10:24:39;;;;;;;7.03;2.17;;;19.80;71.10;;;;;;5093069;28;20097;-41
2023/03/06 10:27:06;;;;;;;5.90;2.00;;;19.80;71.00;;;;;;5109502;28;20461;-44
2023/03/06 10:29:33;;;;;;;6.60;1.92;;;19.80;70.80;;;;;;5109749;28;20035;-45
2023/03/06 10:32:02;;;;;;;6.38;2.20;;;19.90;70.90;;;;;;5110737;28;20054;-45
2023/03/06 10:34:29;;;;;;;5.20;2.28;;;19.90;70.80;;;;;;5109133;28;20048;-43
2023/03/06 10:36:56;;;;;;;5.90;2.13;;;19.90;70.60;;;;;;5110688;28;20119;-44
2023/03/06 10:39:22;;;;;;;6.85;2.22;;;19.90;70.60;;;;;;5110824;28;20036;-42
2023/03/06 10:41:49;;;;;;;7.45;2.30;;;20.00;70.60;;;;;;5109727;28;20043;-42
2023/03/06 10:44:15;;;;;;;7.60;2.17;;;20.00;70.30;;;;;;5110789;28;20044;-43
2023/03/06 10:46:42;;;;;;;8.00;2.00;;;20.00;70.40;;;;;;5098415;28;20434;-41
2023/03/06 10:49:09;;;;;;;6.82;2.42;;;20.00;70.40;;;;;;5095664;28;20044;-42
2023/03/06 10:51:36;;;;;;;5.82;2.10;;;20.00;70.30;;;;;;5097198;28;20051;-43
2023/03/06 10:54:02;;;;;;;10.35;2.70;;;20.00;70.30;;;;;;5096309;28;20043;-42
2023/03/06 10:56:29;;;;;;;7.00;2.28;;;20.00;70.50;;;;;;5095682;28;20040;-43
2023/03/06 10:58:55;;;;;;;7.88;2.40;;;20.10;70.50;;;;;;5095816;28;20085;-42
2023/03/06 11:01:22;;;;;;;7.53;2.50;;;20.10;70.50;;;;;;5092991;28;20062;-41
2023/03/06 11:03:49;;;;;;;8.10;2.30;;;20.20;70.70;;;;;;5095809;28;20075;-40
2023/03/06 11:06:15;;;;;;;6.38;2.00;;;20.20;70.70;;;;;;5094998;28;20047;-43
2023/03/06 11:08:42;;;;;;;6.35;2.40;;;20.30;70.60;;;;;;5092007;28;20056;-43
2023/03/06 11:11:09;;;;;;;8.45;2.40;;;20.30;70.70;;;;;;5095508;28;20044;-47
2023/03/06 11:13:36;;;;;;;6.68;2.28;;;20.30;70.70;;;;;;5078095;28;20048;-39
2023/03/06 11:16:02;;;;;;;7.60;2.65;;;20.30;70.70;;;;;;5091814;28;20446;-44
2023/03/06 11:18:33;;;;;;;6.00;2.30;;;20.40;70.40;;;;;;5095382;28;20075;-42
2023/03/06 11:21:00;;;;;;;6.85;2.63;;;20.40;70.50;;;;;;5095195;28;20040;-47
2023/03/06 11:23:26;;;;;;;5.55;2.33;;;20.40;70.20;;;;;;5088081;28;20044;-46
2023/03/06 11:25:53;;;;;;;6.00;2.72;;;20.40;70.00;;;;;;5095096;28;20548;-41
2023/03/06 11:28:20;;;;;;;7.38;2.63;;;20.40;70.00;;;;;;5094924;28;20097;-43
2023/03/06 11:30:47;;;;;;;7.82;3.03;;;20.40;69.90;;;;;;5096108;28;20044;-42
2023/03/06 11:33:13;;;;;;;8.80;3.13;;;20.40;70.00;;;;;;5096279;28;20056;-42
2023/03/06 11:35:40;;;;;;;35.42;20.85;;;20.40;70.20;;;;;;5095259;28;20051;-47
2023/03/06 11:38:07;;;;;;;35.38;19.02;;;20.40;72.00;;;;;;5095939;28;20043;-46
2023/03/06 11:40:33;;;;;;;30.55;15.30;;;20.50;76.20;;;;;;5095405;28;20048;-45
2023/03/06 11:43:00;;;;;;;32.58;15.68;;;20.50;76.70;;;;;;5094899;28;20442;-42
2023/03/06 11:45:26;;;;;;;37.60;18.23;;;20.60;76.80;;;;;;5096150;28;20040;-47
2023/03/06 11:47:53;;;;;;;67.13;29.75;;;20.60;77.50;;;;;;5094631;28;20048;-43
2023/03/06 11:50:20;;;;;;;63.70;31.95;;;20.70;82.50;;;;;;5095832;28;20043;-42
2023/03/06 11:52:46;;;;;;;61.70;31.40;;;20.70;84.10;;;;;;5096161;28;20035;-44
2023/03/06 11:55:13;;;;;;;41.10;19.27;;;20.80;84.30;;;;;;5094765;28;20050;-41
2023/03/06 11:57:39;;;;;;;56.58;24.60;;;20.80;81.00;;;;;;5094593;28;20477;-43
2023/03/06 12:00:06;;;;;;;43.35;20.42;;;20.80;81.60;;;;;;5077559;28;20417;-43
2023/03/06 12:02:38;;;;;;;53.85;27.77;;;20.90;81.40;;;;;;5076565;28;20036;-40
2023/03/06 12:05:05;;;;;;;66.72;33.35;;;20.90;84.50;;;;;;5077449;28;20453;-40
2023/03/06 12:07:32;;;;;;;47.67;22.23;;;20.90;84.20;;;;;;5093777;28;20044;-42
2023/03/06 12:09:59;;;;;;;50.28;21.10;;;21.00;82.30;;;;;;5095226;28;20055;-41
2023/03/06 12:12:25;;;;;;;36.00;17.30;;;21.00;81.80;;;;;;5095778;28;20127;-40
2023/03/06 12:14:52;;;;;;;35.45;15.07;;;21.00;80.60;;;;;;5094095;28;20028;-45
2023/03/06 12:17:19;;;;;;;35.05;13.88;;;21.00;79.10;;;;;;5093349;28;20051;-41
2023/03/06 12:19:46;;;;;;;28.83;12.93;;;21.00;78.70;;;;;;5093148;28;20063;-44
2023/03/06 12:22:12;;;;;;;27.02;10.30;;;21.00;77.70;;;;;;5093844;28;20039;-45
2023/03/06 12:24:39;;;;;;;23.63;10.27;;;21.00;77.00;;;;;;5094704;28;20101;-43
2023/03/06 12:27:05;;;;;;;22.17;8.88;;;21.00;76.70;;;;;;5094632;28;20166;-46
2023/03/06 12:29:32;;;;;;;23.25;9.52;;;21.00;75.50;;;;;;5094535;28;20044;-39
2023/03/06 12:31:59;;;;;;;18.98;8.60;;;20.90;75.80;;;;;;5077023;28;20043;-43
2023/03/06 12:34:26;;;;;;;18.60;7.63;;;20.90;75.80;;;;;;5093954;28;20070;-43
2023/03/06 12:36:53;;;;;;;18.33;7.63;;;20.90;75.70;;;;;;5094277;28;20462;-42
2023/03/06 12:39:20;;;;;;;17.27;7.10;;;20.80;75.30;;;;;;5094931;28;20055;-41
2023/03/06 12:41:46;;;;;;;16.35;6.63;;;20.80;75.20;;;;;;5094559;28;20036;-46
2023/03/06 12:44:13;;;;;;;15.23;6.43;;;20.80;74.90;;;;;;5095230;28;20040;-42
2023/03/06 12:46:39;;;;;;;18.40;6.45;;;20.80;74.90;;;;;;5076438;28;20077;-43
2023/03/06 12:49:06;;;;;;;15.95;6.07;;;20.80;74.70;;;;;;5093603;28;20051;-42
2023/03/06 12:51:33;;;;;;;15.50;5.93;;;20.80;74.00;;;;;;5094767;28;20058;-42
2023/03/06 12:54:00;;;;;;;12.23;5.55;;;20.80;74.20;;;;;;5094646;28;20040;-45
2023/03/06 12:56:26;;;;;;;12.00;5.28;;;20.80;74.00;;;;;;5094295;28;20051;-41
2023/03/06 12:58:53;;;;;;;13.18;4.85;;;20.80;73.90;;;;;;5094649;28;20044;-42
2023/03/06 13:01:22;;;;;;;13.77;5.38;;;20.80;73.50;;;;;;5093612;28;20043;-41
2023/03/06 13:03:49;;;;;;;12.18;5.25;;;20.80;73.70;;;;;;5076765;28;20112;-44
2023/03/06 13:06:16;;;;;;;11.63;4.70;;;20.80;73.50;;;;;;5094580;28;20056;-42
2023/03/06 13:08:42;;;;;;;11.30;4.63;;;20.70;73.60;;;;;;5092877;28;20048;-41
2023/03/06 13:11:10;;;;;;;11.57;4.63;;;20.70;73.40;;;;;;5094499;28;20062;-43
2023/03/06 13:13:36;;;;;;;11.65;4.53;;;20.70;73.50;;;;;;5094609;28;20044;-43
2023/03/06 13:16:03;;;;;;;13.43;4.75;;;20.70;73.50;;;;;;5092820;28;20048;-40
2023/03/06 13:18:29;;;;;;;12.52;4.30;;;20.70;73.40;;;;;;5094435;28;20036;-41
2023/03/06 13:20:56;;;;;;;10.57;4.30;;;20.70;73.30;;;;;;5093670;28;20184;-43
2023/03/06 13:23:23;;;;;;;11.65;4.20;;;20.70;73.10;;;;;;5076694;28;20052;-42
2023/03/06 13:25:49;;;;;;;10.85;4.15;;;20.60;73.30;;;;;;5094170;28;20389;-42
2023/03/06 13:28:16;;;;;;;11.93;4.38;;;20.60;73.20;;;;;;5093082;28;20052;-41
2023/03/06 13:30:42;;;;;;;10.23;4.00;;;20.60;73.20;;;;;;5094231;28;20418;-41
2023/03/06 13:33:09;;;;;;;10.77;4.28;;;20.60;73.30;;;;;;5094583;28;20040;-43
2023/03/06 13:35:36;;;;;;;9.80;3.88;;;20.60;73.20;;;;;;5092964;28;20134;-45
2023/03/06 13:38:03;;;;;;;8.00;3.28;;;20.60;73.10;;;;;;5093203;28;20032;-40
2023/03/06 13:40:29;;;;;;;12.90;3.90;;;20.60;73.10;;;;;;5093518;28;20406;-41
2023/03/06 13:42:56;;;;;;;11.10;4.10;;;20.60;73.10;;;;;;5092738;28;20323;-42
2023/03/06 13:45:23;;;;;;;9.68;3.60;;;20.60;73.10;;;;;;5093081;28;20044;-40
2023/03/06 13:47:49;;;;;;;9.00;3.58;;;20.60;73.00;;;;;;5092659;28;20097;-41
2023/03/06 13:50:36;;;;;;;10.70;3.60;;;20.50;73.10;;;;;;5093144;28;20423;-42
2023/03/06 13:53:03;;;;;;;8.00;3.20;;;20.60;73.10;;;;;;5093576;28;20048;-41
2023/03/06 13:55:30;;;;;;;7.80;3.33;;;20.50;73.00;;;;;;5093249;28;20044;-39
2023/03/06 13:57:56;;;;;;;8.63;3.50;;;20.60;73.10;;;;;;5093892;28;20032;-41
2023/03/06 14:00:23;;;;;;;9.75;3.15;;;20.50;73.00;;;;;;5093622;28;20040;-45
2023/03/06 14:02:50;;;;;;;9.00;3.10;;;20.60;73.30;;;;;;5074976;28;20347;-46
2023/03/06 14:05:17;;;;;;;7.75;3.30;;;20.60;73.20;;;;;;5091670;28;20097;-43
2023/03/06 14:07:43;;;;;;;7.50;3.03;;;20.60;73.30;;;;;;5092293;28;20050;-44
2023/03/06 14:10:10;;;;;;;8.63;3.53;;;20.60;73.60;;;;;;5094033;28;20044;-40
2023/03/06 14:12:37;;;;;;;7.70;3.05;;;20.60;73.50;;;;;;5094105;28;20462;-42
2023/03/06 14:15:03;;;;;;;9.18;2.80;;;20.60;73.40;;;;;;5092602;28;20036;-40
2023/03/06 14:17:30;;;;;;;7.40;2.83;;;20.60;73.50;;;;;;5093536;28;20044;-40
2023/03/06 14:19:57;;;;;;;8.73;2.95;;;20.70;73.50;;;;;;5093080;28;20040;-42
2023/03/06 14:22:23;;;;;;;9.02;3.10;;;20.70;73.30;;;;;;5095753;28;20028;-45
2023/03/06 14:24:50;;;;;;;7.55;3.10;;;20.70;73.40;;;;;;5091618;28;20048;-47
2023/03/06 14:27:17;;;;;;;7.75;2.70;;;20.70;73.00;;;;;;5097103;28;20073;-44
2023/03/06 14:29:48;;;;;;;8.25;2.88;;;20.70;73.20;;;;;;5092977;28;20033;-44
2023/03/06 14:32:15;;;;;;;5.85;2.47;;;20.70;73.20;;;;;;5093101;28;20123;-41
2023/03/06 14:34:41;;;;;;;7.20;2.60;;;20.70;73.20;;;;;;5093524;28;20127;-42
2023/03/06 14:37:08;;;;;;;7.38;2.80;;;20.70;72.90;;;;;;5096552;28;20840;-45
2023/03/06 14:39:35;;;;;;;6.57;2.40;;;20.70;72.80;;;;;;5096829;28;20089;-40
2023/03/06 14:42:02;;;;;;;5.85;2.40;;;20.70;72.90;;;;;;5071666;28;20127;-41
2023/03/06 14:44:28;;;;;;;6.50;2.50;;;20.70;73.50;;;;;;5084303;28;20419;-41
2023/03/06 14:46:55;;;;;;;7.75;2.50;;;20.70;72.90;;;;;;5097189;28;20062;-43
2023/03/06 14:49:21;;;;;;;7.28;2.38;;;20.70;72.80;;;;;;5096403;28;20036;-42
2023/03/06 14:51:48;;;;;;;7.82;2.53;;;20.70;72.90;;;;;;5094038;28;20036;-40
2023/03/06 14:54:15;;;;;;;6.60;2.55;;;20.70;72.70;;;;;;5095045;28;20050;-44
2023/03/06 14:56:42;;;;;;;6.03;2.20;;;20.70;72.60;;;;;;5094823;28;20040;-42
2023/03/06 14:59:09;;;;;;;7.75;2.60;;;20.70;72.90;;;;;;5076443;28;20039;-44
2023/03/06 15:01:36;;;;;;;6.07;2.20;;;20.70;73.20;;;;;;5075249;28;20045;-45
2023/03/06 15:04:02;;;;;;;5.97;2.30;;;20.70;72.70;;;;;;5078289;28;20106;-45
2023/03/06 15:06:30;;;;;;;11.30;2.92;;;20.70;74.30;;;;;;5079074;28;20123;-42
2023/03/06 15:08:56;;;;;;;7.95;1.98;;;20.70;73.90;;;;;;5079738;28;20097;-44
2023/03/06 15:11:23;;;;;;;7.28;2.40;;;20.80;73.80;;;;;;5083215;28;20386;-43
2023/03/06 15:13:49;;;;;;;5.38;1.90;;;20.80;73.80;;;;;;5075773;28;20049;-41
2023/03/06 15:16:16;;;;;;;7.07;2.10;;;20.90;73.70;;;;;;5075023;28;20474;-40
2023/03/06 15:18:43;;;;;;;5.65;2.17;;;20.90;73.60;;;;;;5082879;28;20036;-45
2023/03/06 15:21:10;;;;;;;7.57;2.22;;;20.90;73.90;;;;;;5092505;28;20066;-45
2023/03/06 15:23:36;;;;;;;6.07;2.25;;;21.00;73.70;;;;;;5091736;28;20044;-41
2023/03/06 15:26:03;;;;;;;6.20;2.08;;;21.00;73.60;;;;;;5096829;28;20048;-42
2023/03/06 15:28:30;;;;;;;5.95;2.20;;;21.00;73.80;;;;;;5077390;28;20048;-44
2023/03/06 15:30:56;;;;;;;6.07;1.98;;;21.10;73.80;;;;;;5075493;28;20045;-41
2023/03/06 15:33:23;;;;;;;5.15;1.90;;;21.10;73.70;;;;;;5082644;28;20077;-43
2023/03/06 15:35:50;;;;;;;5.15;2.00;;;21.10;73.80;;;;;;5089802;28;20044;-44
2023/03/06 15:38:16;;;;;;;5.90;1.88;;;21.10;73.70;;;;;;5095934;28;20060;-42
2023/03/06 15:40:48;;;;;;;5.97;1.95;;;21.10;74.10;;;;;;5095256;28;20047;-43
2023/03/06 15:43:15;;;;;;;;;;;21.10;73.80;;;;;;5091267;28;20472;-42
2023/03/06 15:45:41;;;;;;;6.82;2.00;;;21.10;73.50;;;;;;5087227;28;20016;-41
2023/03/06 15:48:08;;;;;;;5.10;1.90;;;21.10;73.40;;;;;;5072892;28;20075;-42
2023/03/06 15:50:35;;;;;;;5.47;1.95;;;21.10;73.20;;;;;;5073722;28;20044;-44
2023/03/06 15:53:01;;;;;;;5.03;2.00;;;21.10;73.10;;;;;;5089917;28;20052;-43
2023/03/06 15:55:28;;;;;;;5.63;1.85;;;21.10;72.90;;;;;;5092232;28;20040;-45
2023/03/06 15:57:55;;;;;;;4.88;1.80;;;21.10;72.90;;;;;;5093947;28;20040;-46
2023/03/06 16:00:21;;;;;;;5.07;1.77;;;21.10;72.90;;;;;;5075477;28;20042;-43
2023/03/06 16:02:53;;;;;;;4.95;1.80;;;21.10;72.70;;;;;;5092500;28;20074;-42
2023/03/06 16:05:20;;;;;;;5.22;1.88;;;21.10;72.60;;;;;;5093265;28;20044;-40
2023/03/06 16:07:47;;;;;;;5.10;1.65;;;21.10;72.60;;;;;;5090512;28;20113;-44
2023/03/06 16:10:13;;;;;;;5.80;1.77;;;21.10;72.60;;;;;;5091035;28;20045;-42
2023/03/06 16:12:40;;;;;;;5.57;1.70;;;21.10;72.60;;;;;;5075206;28;20048;-48
2023/03/06 16:15:07;;;;;;;5.30;1.80;;;21.10;72.30;;;;;;5074184;28;20052;-42
2023/03/06 16:17:33;;;;;;;4.80;1.70;;;21.10;72.50;;;;;;5075215;28;20052;-41
2023/03/06 16:20:00;;;;;;;4.75;1.73;;;21.10;72.50;;;;;;5091362;28;20098;-47
2023/03/06 16:22:27;;;;;;;6.63;1.92;;;21.10;73.20;;;;;;5073726;28;20044;-45
2023/03/06 16:24:53;;;;;;;5.13;1.75;;;21.10;72.90;;;;;;5075108;28;20036;-40
2023/03/06 16:27:24;;;;;;;5.07;1.70;;;21.10;72.90;;;;;;5075206;28;20040;-40
2023/03/06 16:29:51;;;;;;;5.07;2.00;;;21.10;72.80;;;;;;5079893;28;20029;-45
2023/03/06 16:32:18;;;;;;;4.90;1.80;;;21.20;72.90;;;;;;5094913;28;20264;-42
2023/03/06 16:34:45;;;;;;;5.70;1.80;;;21.20;72.70;;;;;;5094243;28;20037;-44
2023/03/06 16:37:11;;;;;;;8.15;1.90;;;21.20;72.80;;;;;;5094659;28;20105;-42
2023/03/06 16:39:38;;;;;;;4.95;1.70;;;21.30;72.70;;;;;;5095296;28;20537;-42
2023/03/06 16:42:05;;;;;;;6.57;1.70;;;21.20;72.70;;;;;;5093602;28;20044;-40
2023/03/06 16:44:31;;;;;;;5.07;1.70;;;21.20;72.70;;;;;;5078243;28;20047;-40
2023/03/06 16:46:58;;;;;;;4.78;1.70;;;21.30;72.80;;;;;;5074256;28;20056;-40
2023/03/06 16:49:25;;;;;;;4.93;1.60;;;21.20;72.70;;;;;;5055917;28;20048;-43
2023/03/06 16:51:51;;;;;;;4.57;1.60;;;21.30;72.50;;;;;;5073235;28;20072;-44
2023/03/06 16:54:18;;;;;;;5.10;1.65;;;21.30;72.40;;;;;;5073216;28;20131;-40
2023/03/06 16:56:45;;;;;;;4.07;1.60;;;21.30;72.30;;;;;;5074489;28;20452;-43
2023/03/06 16:59:12;;;;;;;5.50;1.63;;;21.30;72.20;;;;;;5074178;28;20040;-39
2023/03/06 17:01:38;;;;;;;4.13;1.60;;;21.30;72.20;;;;;;5073751;28;20051;-50
2023/03/06 17:04:05;;;;;;;3.67;1.30;;;21.30;72.10;;;;;;5074590;28;20044;-40
2023/03/06 17:06:32;;;;;;;5.28;1.40;;;21.30;71.90;;;;;;5074297;28;20045;-39
2023/03/06 17:08:58;;;;;;;4.93;1.60;;;21.40;71.90;;;;;;5073456;28;20037;-38
2023/03/06 17:11:25;;;;;;;5.10;1.58;;;21.30;71.80;;;;;;5073789;28;20051;-41
2023/03/06 17:13:53;;;;;;;4.35;1.50;;;21.40;71.80;;;;;;5073924;28;20100;-44
2023/03/06 17:16:20;;;;;;;4.40;1.58;;;21.40;71.70;;;;;;5073634;28;20445;-42
2023/03/06 17:18:48;;;;;;;4.95;1.60;;;21.30;71.70;;;;;;5084195;28;20040;-41
2023/03/06 17:21:15;;;;;;;5.72;1.55;;;21.30;71.70;;;;;;5069349;28;20047;-42
2023/03/06 17:23:41;;;;;;;4.38;1.50;;;21.30;71.70;;;;;;5072191;28;20067;-39
2023/03/06 17:26:08;;;;;;;4.72;1.60;;;21.40;71.70;;;;;;5072394;28;20121;-42
2023/03/06 17:28:35;;;;;;;4.28;1.63;;;21.40;71.70;;;;;;5071017;28;20453;-38
2023/03/06 17:31:01;;;;;;;4.10;1.50;;;21.30;71.60;;;;;;5072418;28;20413;-37
2023/03/06 17:33:28;;;;;;;3.70;1.50;;;21.30;71.60;;;;;;5071497;28;20071;-41
2023/03/06 17:35:55;;;;;;;4.65;1.65;;;21.40;71.50;;;;;;5070933;28;20639;-44
2023/03/06 17:38:22;;;;;;;3.47;1.40;;;21.40;71.50;;;;;;5072273;28;20067;-41
2023/03/06 17:40:49;;;;;;;4.63;1.42;;;21.40;71.60;;;;;;5086647;28;20040;-40
2023/03/06 17:43:15;;;;;;;4.40;1.50;;;21.30;71.40;;;;;;5071547;28;20053;-39
2023/03/06 17:45:42;;;;;;;3.33;1.20;;;21.40;71.50;;;;;;5071728;28;20450;-43
2023/03/06 17:48:09;;;;;;;4.68;1.50;;;21.40;71.50;;;;;;5085810;28;20466;-42
2023/03/06 17:50:36;;;;;;;5.55;1.55;;;21.40;71.50;;;;;;5071747;28;20462;-42
2023/03/06 17:53:02;;;;;;;4.07;1.67;;;21.40;71.40;;;;;;5071853;28;20105;-39
2023/03/06 17:55:29;;;;;;;4.07;1.42;;;21.40;71.40;;;;;;5079960;28;20109;-40
2023/03/06 17:57:55;;;;;;;4.40;1.48;;;21.40;71.30;;;;;;5095343;28;20040;-40
2023/03/06 18:00:22;;;;;;;4.07;1.40;;;21.40;71.50;;;;;;5096023;28;20063;-44
2023/03/06 18:02:49;;;;;;;4.45;1.52;;;21.40;71.40;;;;;;5094858;28;20059;-41
2023/03/06 18:05:16;;;;;;;5.85;1.40;;;21.40;71.90;;;;;;5095665;28;20527;-39
2023/03/06 18:07:43;;;;;;;4.22;1.48;;;21.40;71.30;;;;;;5077404;28;20044;-40
2023/03/06 18:10:10;;;;;;;3.97;1.50;;;21.40;71.20;;;;;;5095322;28;20052;-40
2023/03/06 18:12:37;;;;;;;3.65;1.20;;;21.30;71.20;;;;;;5077600;28;20056;-43
2023/03/06 18:15:03;;;;;;;3.20;1.27;;;21.40;71.30;;;;;;5076487;28;20094;-38
2023/03/06 18:17:30;;;;;;;3.38;1.30;;;21.40;71.30;;;;;;5077905;28;20036;-39
2023/03/06 18:19:56;;;;;;;4.25;1.30;;;21.40;71.20;;;;;;5092432;28;20381;-38
2023/03/06 18:22:23;;;;;;;2.88;1.20;;;21.40;71.20;;;;;;5093534;28;20131;-36
2023/03/06 18:24:50;;;;;;;3.65;1.20;;;21.40;71.20;;;;;;5077153;28;20048;-41
2023/03/06 18:27:16;;;;;;;4.13;1.60;;;21.40;71.20;;;;;;5091793;28;20131;-40
2023/03/06 18:29:43;;;;;;;3.42;1.40;;;21.40;71.00;;;;;;5094107;28;20105;-41
2023/03/06 18:32:10;;;;;;;4.05;1.30;;;21.40;71.10;;;;;;5094513;28;20040;-39
2023/03/06 18:34:37;;;;;;;5.20;1.42;;;21.40;71.10;;;;;;5093356;28;20052;-42
2023/03/06 18:37:04;;;;;;;3.35;1.15;;;21.40;71.20;;;;;;5089652;28;20036;-41
2023/03/06 18:39:31;;;;;;;3.90;1.35;;;21.40;71.20;;;;;;5094777;28;20116;-41
2023/03/06 18:41:57;;;;;;;4.55;1.50;;;21.40;71.20;;;;;;5073693;28;20100;-37
2023/03/06 18:44:24;;;;;;;3.97;1.27;;;21.40;71.30;;;;;;5074552;28;20463;-38
2023/03/06 18:46:50;;;;;;;3.85;1.30;;;21.40;71.30;;;;;;5090674;28;20048;-43
2023/03/06 18:49:17;;;;;;;5.32;1.40;;;21.40;71.30;;;;;;5093383;28;20143;-38
2023/03/06 18:51:46;;;;;;;3.97;1.40;;;21.30;71.20;;;;;;5097129;28;20059;-43
2023/03/06 18:54:12;;;;;;;3.92;1.40;;;21.30;71.20;;;;;;5096453;28;20416;-43
2023/03/06 18:56:42;;;;;;;3.75;1.40;;;21.30;71.30;;;;;;5096935;28;20050;-43
2023/03/06 18:59:09;;;;;;;3.92;1.45;;;21.20;71.30;;;;;;5097135;28;20043;-41
2023/03/06 19:01:36;;;;;;;5.75;1.50;;;21.20;71.50;;;;;;5096164;28;20040;-44
2023/03/06 19:04:03;;;;;;;4.40;1.40;;;21.10;71.50;;;;;;5096568;28;20462;-45
2023/03/06 19:06:29;;;;;;;4.88;1.48;;;21.10;71.60;;;;;;5096611;28;20044;-45
2023/03/06 19:09:01;;;;;;;3.85;1.38;;;21.00;71.60;;;;;;5078069;28;20070;-37
2023/03/06 19:11:27;;;;;;;5.60;1.63;;;21.00;71.70;;;;;;5096010;28;20058;-47
